Jacques Jacob — ZDKG7 — position and weather

sailwx.info

Track history (hours):
 
Tides and Currents Weather Stations Pressure Air Temp Water Temp Dewpoint Dewpoint Depression Visibility Wind Speed Wind Dir Waves Ship Positions

Jacques Jacob

Last reported at 2014-May-27 01:03 UTC. Time now 2014-Jul-31 09:34 UTC.
Position N 29°35' W 094°56'.
Warning: this ship's position is months out of date.

Length 228 m; draft 11.9 m.

Type: Tanker. MMSI: 236612000.

Date/timePositionNaut miles runAvg speedWind from/ knotsBaromVisibWave heightAir tempDewpointWater temp
2014-May-27 01:03N 29°35' W 094°56'4 8.6
2014-May-27 00:33N 29°39' W 094°58'4 7.0
2014-May-27 00:03N 29°42' W 095°01'3 5.6
2014-May-26 23:33N 29°44' W 095°03'3 5.6
2014-May-26 23:04N 29°45' W 095°06'1 1.3
2014-May-26 22:33N 29°45' W 095°06'0 0.0
2014-May-26 20:03N 29°45' W 095°06'0 0.0
2014-May-26 17:57N 29°45' W 095°06'0 0.0
2014-May-25 18:32N 29°45' W 095°06'0 0.0
2014-May-25 17:32N 29°45' W 095°06'0 0.0
2014-May-25 16:32N 29°45' W 095°06'0 0.0
2014-May-25 15:20N 29°45' W 095°06'0 0.0
2014-May-25 14:32N 29°45' W 095°06'2 2.2
2014-May-25 13:28N 29°44' W 095°03'7 7.1
2014-May-25 12:33N 29°40' W 094°58'10 9.8
2014-May-25 11:32N 29°31' W 094°53'  
Track history (hours):
 
Tides and Currents Weather Stations Pressure Air Temp Water Temp Dewpoint Dewpoint Depression Visibility Wind Speed Wind Dir Waves Ship Positions

Jacques Jacob

Last reported at 2014-May-27 01:03 UTC. Time now 2014-Jul-31 09:34 UTC.
Position N 29°35' W 094°56'.
Warning: this ship's position is months out of date.

Length 228 m; draft 11.9 m.

Type: Tanker. MMSI: 236612000.

Date/timePositionNaut miles runAvg speedWind from/ knotsBaromVisibWave heightAir tempDewpointWater temp
2014-May-27 01:03N 29°35' W 094°56'4 8.6
2014-May-27 00:33N 29°39' W 094°58'4 7.0
2014-May-27 00:03N 29°42' W 095°01'3 5.6
2014-May-26 23:33N 29°44' W 095°03'3 5.6
2014-May-26 23:04N 29°45' W 095°06'1 1.3
2014-May-26 22:33N 29°45' W 095°06'0 0.0
2014-May-26 20:03N 29°45' W 095°06'0 0.0
2014-May-26 17:57N 29°45' W 095°06'0 0.0
2014-May-25 18:32N 29°45' W 095°06'0 0.0
2014-May-25 17:32N 29°45' W 095°06'0 0.0
2014-May-25 16:32N 29°45' W 095°06'0 0.0
2014-May-25 15:20N 29°45' W 095°06'0 0.0
2014-May-25 14:32N 29°45' W 095°06'2 2.2
2014-May-25 13:28N 29°44' W 095°03'7 7.1
2014-May-25 12:33N 29°40' W 094°58'10 9.8
2014-May-25 11:32N 29°31' W 094°53'  

Dump ship's entire track history